createdAt,value
2023-01-06T00:01:34.803Z,76.96
2023-01-06T00:04:03.455Z,77.44
2023-01-06T00:06:31.792Z,77.37
2023-01-06T00:09:05.143Z,77.50
2023-01-06T00:11:33.333Z,77.95
2023-01-06T00:14:01.441Z,78.04
2023-01-06T00:16:28.830Z,78.09
2023-01-06T00:18:59.336Z,77.74
2023-01-06T00:21:28.245Z,77.59
2023-01-06T00:23:56.218Z,76.84
2023-01-06T00:26:24.338Z,77.65
2023-01-06T00:28:56.887Z,77.43
2023-01-06T00:31:24.261Z,77.77
2023-01-06T00:33:52.201Z,78.12
2023-01-06T00:36:21.755Z,78.70
2023-01-06T00:38:51.269Z,78.55
2023-01-06T00:41:38.992Z,78.31
2023-01-06T00:44:07.173Z,78.60
2023-01-06T00:46:35.019Z,79.00
2023-01-06T00:49:06.239Z,79.35
2023-01-06T00:51:37.436Z,79.11
2023-01-06T00:54:09.904Z,79.45
2023-01-06T00:56:43.589Z,79.00
2023-01-06T00:59:14.905Z,79.31
2023-01-06T01:01:44.116Z,79.31
2023-01-06T01:04:12.981Z,78.89
2023-01-06T01:06:44.066Z,79.50
2023-01-06T01:09:18.495Z,79.94
2023-01-06T01:12:04.596Z,79.66
2023-01-06T01:14:32.553Z,79.74
2023-01-06T01:16:59.839Z,79.81
2023-01-06T01:19:28.476Z,79.65
2023-01-06T01:21:55.903Z,79.77
2023-01-06T01:24:23.783Z,79.93
2023-01-06T01:26:51.332Z,80.18
2023-01-06T01:29:20.395Z,80.58
2023-01-06T01:31:48.040Z,80.71
2023-01-06T01:34:18.313Z,80.80
2023-01-06T01:36:48.734Z,80.62
2023-01-06T01:39:19.353Z,81.01
2023-01-06T01:41:47.674Z,80.43
2023-01-06T01:45:21.540Z,80.78
2023-01-06T01:48:07.592Z,80.86
2023-01-06T01:50:46.406Z,80.77
2023-01-06T01:53:23.925Z,81.08
2023-01-06T01:55:54.583Z,80.82
2023-01-06T01:58:28.201Z,81.12
2023-01-06T02:00:55.746Z,81.16
2023-01-06T02:03:25.562Z,81.15
2023-01-06T02:05:59.860Z,80.81
2023-01-06T02:08:50.136Z,80.92
2023-01-06T02:11:17.873Z,80.57
2023-01-06T02:13:47.764Z,80.87
2023-01-06T02:16:48.672Z,80.72
2023-01-06T02:19:59.229Z,80.90
2023-01-06T02:22:46.962Z,81.01
2023-01-06T02:26:00.623Z,81.06
2023-01-06T02:28:59.043Z,81.27
2023-01-06T02:31:44.227Z,81.34
2023-01-06T02:34:39.961Z,81.12
2023-01-06T02:37:52.253Z,81.03
2023-01-06T02:40:56.954Z,81.38
2023-01-06T02:43:47.326Z,80.78
2023-01-06T02:46:40.727Z,80.98
2023-01-06T02:49:29.845Z,81.22
2023-01-06T02:52:31.818Z,81.41
2023-01-06T02:55:10.292Z,81.58
2023-01-06T02:57:53.749Z,80.56
2023-01-06T03:00:36.162Z,80.93
2023-01-06T03:03:13.229Z,81.14
2023-01-06T03:05:44.445Z,81.48
2023-01-06T03:08:30.640Z,81.45
2023-01-06T03:11:00.776Z,81.59
2023-01-06T03:13:48.710Z,81.45
2023-01-06T03:16:17.377Z,81.48
2023-01-06T03:18:48.255Z,82.10
2023-01-06T03:21:23.110Z,81.17
2023-01-06T03:23:51.171Z,81.56
2023-01-06T03:26:18.663Z,81.69
2023-01-06T03:28:46.408Z,81.76
2023-01-06T03:31:52.718Z,81.59
2023-01-06T03:35:05.350Z,81.81
2023-01-06T03:37:58.090Z,81.54
2023-01-06T03:40:44.186Z,81.29
2023-01-06T03:43:32.333Z,81.05
2023-01-06T03:46:34.278Z,81.28
2023-01-06T03:49:28.836Z,81.29
2023-01-06T03:52:40.623Z,81.62
2023-01-06T03:55:19.024Z,81.65
2023-01-06T03:57:56.823Z,81.42
2023-01-06T04:00:30.226Z,81.21
2023-01-06T04:02:58.512Z,81.54
2023-01-06T04:05:28.490Z,81.46
2023-01-06T04:07:56.096Z,81.07
2023-01-06T04:10:24.589Z,81.42
2023-01-06T04:12:52.383Z,81.33
2023-01-06T04:15:23.740Z,81.58
2023-01-06T04:17:53.006Z,81.55
2023-01-06T04:20:25.164Z,82.14
2023-01-06T04:22:57.845Z,82.45
2023-01-06T04:25:26.077Z,82.09
2023-01-06T04:27:54.328Z,82.19
2023-01-06T04:30:21.639Z,82.48
2023-01-06T04:32:49.317Z,82.35
2023-01-06T04:35:16.659Z,82.25
2023-01-06T04:37:44.275Z,81.85
2023-01-06T04:40:11.996Z,81.67
2023-01-06T04:42:57.972Z,81.60
2023-01-06T04:45:25.288Z,81.51
2023-01-06T04:47:53.033Z,81.49
2023-01-06T04:50:20.371Z,81.73
2023-01-06T04:52:47.951Z,81.47
2023-01-06T04:55:15.347Z,81.66
2023-01-06T04:57:43.163Z,81.69
2023-01-06T05:00:11.379Z,81.75
2023-01-06T05:02:39.085Z,81.52
2023-01-06T05:05:06.873Z,81.55
2023-01-06T05:07:34.523Z,81.35
2023-01-06T05:10:01.839Z,81.44
2023-01-06T05:12:29.555Z,81.29
2023-01-06T05:14:56.814Z,81.26
2023-01-06T05:17:24.474Z,81.08
2023-01-06T05:19:51.891Z,81.31
2023-01-06T05:22:19.641Z,81.49
2023-01-06T05:24:47.060Z,81.77
2023-01-06T05:27:14.626Z,81.93
2023-01-06T05:29:41.966Z,82.17
2023-01-06T05:32:09.577Z,82.01
2023-01-06T05:34:36.885Z,82.53
2023-01-06T05:37:04.499Z,82.23
2023-01-06T05:39:31.938Z,82.13
2023-01-06T05:41:59.486Z,82.39
2023-01-06T05:44:26.828Z,82.28
2023-01-06T05:46:54.378Z,82.62
2023-01-06T05:49:22.011Z,82.71
2023-01-06T05:51:49.663Z,82.59
2023-01-06T05:54:17.371Z,82.11
2023-01-06T05:56:44.953Z,82.21
2023-01-06T05:59:12.211Z,81.96
2023-01-06T06:01:39.750Z,81.80
2023-01-06T06:04:06.999Z,81.70
2023-01-06T06:06:34.557Z,81.73
2023-01-06T06:09:05.121Z,81.79
2023-01-06T06:11:32.701Z,81.47
2023-01-06T06:14:00.006Z,81.73
2023-01-06T06:16:28.962Z,81.60
2023-01-06T06:18:59.108Z,82.28
2023-01-06T06:21:30.986Z,82.34
2023-01-06T06:23:59.912Z,82.50
2023-01-06T06:26:27.943Z,82.08
2023-01-06T06:28:55.714Z,82.52
2023-01-06T06:31:29.387Z,83.14
2023-01-06T06:34:00.484Z,83.38
2023-01-06T06:36:29.315Z,83.36
2023-01-06T06:38:57.572Z,83.61
2023-01-06T06:41:26.490Z,83.83
2023-01-06T06:43:54.094Z,84.41
2023-01-06T06:46:22.398Z,84.30
2023-01-06T06:48:50.990Z,84.26
2023-01-06T06:51:22.028Z,84.86
2023-01-06T06:53:50.357Z,84.36
2023-01-06T06:56:20.469Z,84.32
2023-01-06T06:58:48.060Z,84.17
2023-01-06T07:01:19.636Z,84.43
2023-01-06T07:03:47.847Z,84.32
2023-01-06T07:06:24.237Z,83.77
2023-01-06T07:08:51.998Z,83.92
2023-01-06T07:11:20.782Z,84.14
2023-01-06T07:13:48.109Z,83.93
2023-01-06T07:16:16.289Z,83.54
2023-01-06T07:18:44.019Z,83.51
2023-01-06T07:21:11.781Z,82.70
2023-01-06T07:23:39.392Z,82.67
2023-01-06T07:26:07.070Z,82.49
2023-01-06T07:28:34.375Z,82.78
2023-01-06T07:31:02.362Z,82.71
2023-01-06T07:33:29.994Z,82.27
2023-01-06T07:35:58.185Z,81.96
2023-01-06T07:38:26.104Z,81.63
2023-01-06T07:40:59.312Z,81.63
2023-01-06T07:43:26.754Z,81.63
2023-01-06T07:45:54.394Z,81.34
2023-01-06T07:48:21.778Z,81.13
2023-01-06T07:50:49.665Z,81.01
2023-01-06T07:53:17.372Z,81.02
2023-01-06T07:55:52.798Z,80.92
2023-01-06T07:58:21.203Z,80.16
2023-01-06T08:00:48.838Z,79.52
2023-01-06T08:03:16.374Z,79.71
2023-01-06T08:05:44.521Z,80.02
2023-01-06T08:08:12.749Z,79.88
2023-01-06T08:10:44.058Z,79.66
2023-01-06T08:13:11.818Z,79.32
2023-01-06T08:15:40.672Z,78.99
2023-01-06T08:18:08.707Z,78.63
2023-01-06T08:20:36.552Z,78.19
2023-01-06T08:23:03.895Z,78.30
2023-01-06T08:25:31.787Z,78.57
2023-01-06T08:28:02.573Z,80.83
2023-01-06T08:30:30.434Z,79.69
2023-01-06T08:32:59.376Z,78.58
2023-01-06T08:35:27.720Z,78.16
2023-01-06T08:37:55.115Z,78.24
2023-01-06T08:40:22.868Z,77.11
2023-01-06T08:42:50.263Z,77.18
2023-01-06T08:45:18.035Z,76.55
2023-01-06T08:47:45.399Z,76.62
2023-01-06T08:50:12.998Z,76.73
2023-01-06T08:52:40.312Z,76.61
2023-01-06T08:55:08.078Z,76.22
2023-01-06T08:57:35.516Z,76.37
2023-01-06T09:00:06.507Z,76.07
2023-01-06T09:02:33.797Z,76.49
2023-01-06T09:05:01.679Z,76.58
2023-01-06T09:07:29.292Z,76.79
2023-01-06T09:09:57.112Z,76.32
2023-01-06T09:12:24.592Z,75.96
2023-01-06T09:14:52.195Z,75.95
2023-01-06T09:17:19.603Z,75.70
2023-01-06T09:19:47.224Z,74.14
2023-01-06T09:22:14.531Z,74.62
2023-01-06T09:24:42.278Z,75.78
2023-01-06T09:27:09.573Z,75.90
2023-01-06T09:29:37.196Z,76.11
2023-01-06T09:32:04.830Z,76.10
2023-01-06T09:34:32.577Z,76.43
2023-01-06T09:36:59.937Z,76.63
2023-01-06T09:39:27.675Z,77.12
2023-01-06T09:42:06.706Z,77.16
2023-01-06T09:44:54.635Z,76.91
2023-01-06T09:47:32.567Z,77.40
2023-01-06T09:50:43.850Z,77.42
2023-01-06T09:53:20.963Z,76.79
2023-01-06T09:56:01.355Z,76.10
2023-01-06T09:58:37.990Z,76.39
2023-01-06T10:01:13.298Z,75.42
2023-01-06T10:03:40.804Z,75.00
2023-01-06T10:07:11.597Z,74.77
2023-01-06T10:09:53.390Z,73.75
2023-01-06T10:12:38.851Z,73.10
2023-01-06T10:15:35.218Z,72.38
2023-01-06T10:18:26.224Z,72.33
2023-01-06T10:21:27.087Z,71.76
2023-01-06T10:24:32.845Z,69.79
2023-01-06T10:27:28.051Z,61.70
2023-01-06T10:30:00.316Z,57.72
2023-01-06T10:32:34.378Z,53.81
2023-01-06T10:35:03.084Z,49.93
2023-01-06T10:37:41.633Z,46.94
2023-01-06T10:40:30.633Z,45.24
2023-01-06T10:43:17.103Z,44.73
2023-01-06T10:45:49.043Z,45.25
2023-01-06T10:48:27.270Z,45.11
2023-01-06T10:50:57.159Z,44.44
2023-01-06T10:53:26.536Z,43.32
2023-01-06T10:56:00.760Z,43.18
2023-01-06T10:58:37.642Z,43.03
2023-01-06T11:01:24.300Z,42.25
2023-01-06T11:04:20.074Z,41.89
2023-01-06T11:06:58.669Z,41.05
2023-01-06T11:09:32.964Z,39.98
2023-01-06T11:12:24.056Z,38.88
2023-01-06T11:15:02.955Z,37.61
2023-01-06T11:17:31.884Z,36.40
2023-01-06T11:20:25.240Z,35.44
2023-01-06T11:22:52.971Z,33.17
2023-01-06T11:25:20.266Z,30.72
2023-01-06T11:28:20.029Z,30.63
2023-01-06T11:31:00.427Z,30.10
2023-01-06T11:33:32.209Z,29.24
2023-01-06T11:36:10.356Z,28.50
2023-01-06T11:39:21.813Z,27.58
2023-01-06T11:41:53.435Z,26.89
2023-01-06T11:44:34.252Z,26.97
2023-01-06T11:47:17.627Z,26.62
2023-01-06T11:49:56.243Z,25.88
2023-01-06T11:52:32.392Z,26.84
2023-01-06T11:55:09.076Z,26.91
2023-01-06T11:57:54.744Z,27.38
2023-01-06T12:00:51.900Z,27.82
2023-01-06T12:03:41.517Z,27.19
2023-01-06T12:06:18.797Z,25.84
2023-01-06T12:09:18.175Z,27.68
2023-01-06T12:11:53.687Z,29.19
2023-01-06T12:14:29.720Z,30.63
2023-01-06T12:17:25.055Z,32.22
2023-01-06T12:20:33.467Z,34.35
2023-01-06T12:23:29.716Z,36.57
2023-01-06T12:26:02.591Z,39.19
2023-01-06T12:28:40.653Z,38.91
2023-01-06T12:31:21.829Z,37.51
2023-01-06T12:34:48.692Z,35.28
2023-01-06T12:37:41.150Z,36.53
2023-01-06T12:40:34.008Z,37.27
2023-01-06T12:43:16.645Z,37.99
2023-01-06T12:46:07.395Z,38.88
2023-01-06T12:49:06.324Z,37.53
2023-01-06T12:51:58.278Z,36.20
2023-01-06T12:54:33.717Z,38.17
2023-01-06T12:57:01.246Z,40.99
2023-01-06T13:00:05.035Z,44.21
2023-01-06T13:03:25.512Z,46.81
2023-01-06T13:06:26.130Z,49.92
2023-01-06T13:09:06.623Z,52.80
2023-01-06T13:12:18.087Z,55.47
2023-01-06T13:15:03.427Z,56.60
2023-01-06T13:18:33.882Z,56.80
2023-01-06T13:21:20.307Z,59.54
2023-01-06T13:23:50.623Z,60.69
2023-01-06T13:27:01.900Z,59.78
2023-01-06T13:29:34.961Z,61.35
2023-01-06T13:32:39.600Z,61.35
2023-01-06T13:35:31.456Z,63.84
2023-01-06T13:38:53.965Z,63.63
2023-01-06T13:41:29.420Z,64.78
2023-01-06T13:44:00.729Z,65.52
2023-01-06T13:46:31.184Z,66.86
2023-01-06T13:49:05.635Z,67.21
2023-01-06T13:51:37.739Z,68.94
2023-01-06T13:54:05.424Z,68.31
2023-01-06T13:56:35.938Z,69.40
2023-01-06T13:59:22.173Z,70.19
2023-01-06T14:01:50.345Z,69.80
2023-01-06T14:04:47.913Z,70.42
2023-01-06T14:07:35.273Z,70.44
2023-01-06T14:10:26.521Z,70.96
2023-01-06T14:12:55.466Z,71.22
2023-01-06T14:15:35.674Z,71.92
2023-01-06T14:18:04.511Z,72.50
2023-01-06T14:20:37.956Z,72.74
2023-01-06T14:23:18.432Z,73.73
2023-01-06T14:25:54.180Z,73.80
2023-01-06T14:28:21.415Z,74.28
2023-01-06T14:30:52.061Z,74.28
2023-01-06T14:33:40.149Z,75.23
2023-01-06T14:36:14.417Z,75.33
2023-01-06T14:39:17.925Z,75.77
2023-01-06T14:42:09.843Z,76.27
2023-01-06T14:44:50.346Z,76.18
2023-01-06T14:47:43.013Z,76.71
2023-01-06T14:50:45.585Z,76.55
2023-01-06T14:53:28.578Z,76.87
2023-01-06T14:55:56.484Z,77.06
2023-01-06T14:58:39.249Z,77.80
2023-01-06T15:01:07.698Z,78.10
2023-01-06T15:03:36.656Z,77.70
2023-01-06T15:06:19.418Z,78.66
2023-01-06T15:08:48.242Z,77.81
2023-01-06T15:11:30.849Z,78.14
2023-01-06T15:13:58.492Z,79.29
2023-01-06T15:16:45.356Z,79.20
2023-01-06T15:19:16.505Z,79.33
2023-01-06T15:21:48.264Z,80.36
2023-01-06T15:24:24.137Z,80.21
2023-01-06T15:26:53.932Z,79.89
2023-01-06T15:29:25.170Z,79.73
2023-01-06T15:31:55.169Z,79.74
2023-01-06T15:34:40.932Z,80.99
2023-01-06T15:37:18.478Z,81.69
2023-01-06T15:39:47.435Z,82.29
2023-01-06T15:42:21.684Z,82.39
2023-01-06T15:45:00.551Z,82.42
2023-01-06T15:47:42.434Z,82.12
2023-01-06T15:50:24.198Z,82.38
2023-01-06T15:52:56.423Z,82.33
2023-01-06T15:55:35.570Z,82.43
2023-01-06T15:58:28.611Z,82.87
2023-01-06T16:01:18.914Z,82.95
2023-01-06T16:04:01.055Z,82.32
2023-01-06T16:06:32.398Z,83.33
2023-01-06T16:09:27.525Z,82.09
2023-01-06T16:12:14.998Z,83.13
2023-01-06T16:14:46.325Z,84.39
2023-01-06T16:17:37.856Z,84.48
2023-01-06T16:20:22.614Z,84.40
2023-01-06T16:22:56.255Z,85.05
2023-01-06T16:25:34.263Z,85.24
2023-01-06T16:28:05.138Z,85.13
2023-01-06T16:30:36.602Z,83.73
2023-01-06T16:33:04.792Z,85.11
2023-01-06T16:35:34.504Z,85.27
2023-01-06T16:38:02.407Z,85.87
2023-01-06T16:40:30.575Z,85.56
2023-01-06T16:43:03.202Z,85.73
2023-01-06T16:45:44.347Z,85.78
2023-01-06T16:48:16.617Z,86.78
2023-01-06T16:50:50.713Z,87.20
2023-01-06T16:53:21.809Z,87.26
2023-01-06T16:55:55.308Z,87.55
2023-01-06T16:58:30.071Z,87.52
2023-01-06T17:01:09.140Z,88.62
2023-01-06T17:03:38.674Z,88.23
2023-01-06T17:06:21.859Z,89.28
2023-01-06T17:08:50.653Z,89.23
2023-01-06T17:11:22.603Z,88.09
2023-01-06T17:14:03.729Z,89.59
2023-01-06T17:16:41.655Z,90.25
2023-01-06T17:19:29.094Z,90.82
2023-01-06T17:22:24.421Z,90.82
2023-01-06T17:24:52.888Z,91.63
2023-01-06T17:27:30.021Z,91.96
2023-01-06T17:30:02.153Z,91.57
2023-01-06T17:32:37.888Z,91.51
2023-01-06T17:35:29.922Z,92.72
2023-01-06T17:38:02.636Z,93.74
2023-01-06T17:40:38.653Z,94.77
2023-01-06T17:43:23.784Z,95.36
2023-01-06T17:45:51.892Z,95.77
2023-01-06T17:48:19.626Z,97.76
2023-01-06T17:50:58.394Z,98.89
2023-01-06T17:53:55.171Z,99.77
2023-01-06T17:56:25.528Z,99.88
2023-01-06T17:58:53.004Z,100.00
2023-01-06T18:01:30.467Z,100.00
2023-01-06T18:04:00.316Z,100.00
2023-01-06T18:06:39.446Z,100.00
2023-01-06T18:09:16.634Z,100.00
2023-01-06T18:12:02.835Z,100.00
2023-01-06T18:14:42.598Z,100.00
2023-01-06T18:17:26.113Z,100.00
2023-01-06T18:19:53.858Z,100.00
2023-01-06T18:22:25.915Z,100.00
2023-01-06T18:25:00.325Z,100.00
2023-01-06T18:27:34.948Z,100.00
2023-01-06T18:30:27.998Z,100.00
2023-01-06T18:32:56.274Z,100.00
2023-01-06T18:35:29.991Z,100.00
2023-01-06T18:38:03.389Z,100.00
2023-01-06T18:40:31.738Z,100.00
2023-01-06T18:43:06.179Z,100.00
2023-01-06T18:45:36.633Z,100.00
2023-01-06T18:48:39.996Z,100.00
2023-01-06T18:51:20.091Z,100.00
2023-01-06T18:53:49.968Z,100.00
2023-01-06T18:56:23.781Z,100.00
2023-01-06T18:58:55.014Z,100.00
2023-01-06T19:01:31.300Z,100.00
2023-01-06T19:04:10.137Z,100.00
2023-01-06T19:06:40.704Z,100.00
2023-01-06T19:09:21.837Z,100.00
2023-01-06T19:11:59.825Z,100.00
2023-01-06T19:14:32.840Z,100.00
2023-01-06T19:17:00.299Z,100.00
2023-01-06T19:19:39.807Z,100.00
2023-01-06T19:22:29.892Z,100.00
2023-01-06T19:25:26.798Z,100.00
2023-01-06T19:27:59.659Z,100.00
2023-01-06T19:30:48.832Z,100.00
2023-01-06T19:33:39.973Z,100.00
2023-01-06T19:36:49.525Z,100.00
2023-01-06T19:39:36.705Z,100.00
2023-01-06T19:42:23.202Z,100.00
2023-01-06T19:44:57.114Z,100.00
2023-01-06T19:47:35.902Z,100.00
2023-01-06T19:50:23.405Z,100.00
2023-01-06T19:53:00.131Z,100.00
2023-01-06T19:55:30.911Z,100.00
2023-01-06T19:58:05.124Z,100.00
2023-01-06T20:00:50.192Z,100.00
2023-01-06T20:03:32.037Z,100.00
2023-01-06T20:05:59.769Z,100.00
2023-01-06T20:08:28.062Z,100.00
2023-01-06T20:10:55.520Z,100.00
2023-01-06T20:13:23.102Z,100.00
2023-01-06T20:15:50.678Z,100.00
2023-01-06T20:18:18.275Z,100.00
2023-01-06T20:20:45.671Z,100.00
2023-01-06T20:23:13.412Z,100.00
2023-01-06T20:25:40.839Z,100.00
2023-01-06T20:28:08.490Z,100.00
2023-01-06T20:30:35.952Z,100.00
2023-01-06T20:33:03.685Z,100.00
2023-01-06T20:35:31.351Z,100.00
2023-01-06T20:37:59.192Z,100.00
2023-01-06T20:40:26.564Z,100.00
2023-01-06T20:42:54.200Z,100.00
2023-01-06T20:45:21.518Z,100.00
2023-01-06T20:47:49.294Z,100.00
2023-01-06T20:50:16.743Z,100.00
2023-01-06T20:52:47.578Z,100.00
2023-01-06T20:55:15.567Z,100.00
2023-01-06T20:57:43.203Z,100.00
2023-01-06T21:00:12.351Z,100.00
2023-01-06T21:02:40.308Z,100.00
2023-01-06T21:05:08.406Z,100.00
2023-01-06T21:07:36.119Z,100.00
2023-01-06T21:10:04.830Z,100.00
2023-01-06T21:12:32.768Z,100.00
2023-01-06T21:15:00.068Z,100.00
2023-01-06T21:17:27.678Z,100.00
2023-01-06T21:19:55.510Z,100.00
2023-01-06T21:22:23.267Z,100.00
2023-01-06T21:24:50.703Z,100.00
2023-01-06T21:27:18.484Z,100.00
2023-01-06T21:29:45.979Z,100.00
2023-01-06T21:32:13.684Z,100.00
2023-01-06T21:34:41.080Z,100.00
2023-01-06T21:37:08.678Z,100.00
2023-01-06T21:39:36.160Z,100.00
2023-01-06T21:42:22.594Z,100.00
2023-01-06T21:44:49.899Z,100.00
2023-01-06T21:47:17.603Z,100.00
2023-01-06T21:49:45.786Z,100.00
2023-01-06T21:52:15.713Z,100.00
2023-01-06T21:54:44.841Z,100.00
2023-01-06T21:57:13.264Z,100.00
2023-01-06T21:59:40.609Z,100.00
2023-01-06T22:02:09.754Z,100.00
2023-01-06T22:04:37.237Z,100.00
2023-01-06T22:07:09.395Z,100.00
2023-01-06T22:09:40.520Z,100.00
2023-01-06T22:12:13.104Z,100.00
2023-01-06T22:14:41.022Z,100.00
2023-01-06T22:17:09.817Z,100.00
2023-01-06T22:19:39.051Z,100.00
2023-01-06T22:22:07.574Z,100.00
2023-01-06T22:24:36.384Z,100.00
2023-01-06T22:27:04.078Z,100.00
2023-01-06T22:29:31.379Z,100.00
2023-01-06T22:32:06.621Z,100.00
2023-01-06T22:34:34.001Z,100.00
2023-01-06T22:37:01.668Z,100.00
2023-01-06T22:39:29.038Z,100.00
2023-01-06T22:41:56.670Z,100.00
2023-01-06T22:44:23.987Z,100.00
2023-01-06T22:46:51.600Z,100.00
2023-01-06T22:49:18.926Z,100.00
2023-01-06T22:51:46.619Z,100.00
2023-01-06T22:54:13.939Z,100.00
2023-01-06T22:56:42.039Z,100.00
2023-01-06T22:59:10.033Z,100.00
2023-01-06T23:01:37.747Z,100.00
2023-01-06T23:04:05.332Z,100.00
2023-01-06T23:06:34.184Z,100.00
2023-01-06T23:09:01.490Z,100.00
2023-01-06T23:11:29.936Z,100.00
2023-01-06T23:13:58.939Z,100.00
2023-01-06T23:16:29.057Z,100.00
2023-01-06T23:18:56.458Z,100.00
2023-01-06T23:21:26.984Z,100.00
2023-01-06T23:23:54.808Z,100.00
2023-01-06T23:26:34.022Z,100.00
2023-01-06T23:29:01.960Z,100.00
2023-01-06T23:31:35.838Z,100.00
2023-01-06T23:34:08.041Z,100.00
2023-01-06T23:36:37.234Z,100.00
2023-01-06T23:39:07.832Z,100.00
2023-01-06T23:41:37.744Z,100.00
2023-01-06T23:44:06.473Z,100.00
2023-01-06T23:46:40.014Z,100.00
2023-01-06T23:49:10.083Z,100.00
2023-01-06T23:51:38.089Z,100.00
2023-01-06T23:54:07.176Z,100.00
2023-01-06T23:56:37.266Z,100.00
2023-01-06T23:59:07.581Z,100.00
